Time;durP1;ratioP1;P1;durP2;ratioP2;P2;SDS_P1;SDS_P2;PMS_P1;PMS_P2;Temp;Humidity;BMP_temperature;BMP_pressure;BME280_temperature;BME280_humidity;BME280_pressure;Samples;Min_cycle;Max_cycle;Signal;HPM_P1;HPM_P2
2023/10/30 00:00:39;;;;;;;;;;;11.90;99.90;;;;;;5122828;27;19998;-70
2023/10/30 00:03:05;;;;;;;;;;;11.90;99.90;;;;;;5113326;27;19912;-70
2023/10/30 00:05:30;;;;;;;;;;;12.00;99.90;;;;;;5107987;27;20371;-70
2023/10/30 00:07:56;;;;;;;;;;;12.00;99.90;;;;;;5099929;28;19923;-70
2023/10/30 00:10:21;;;;;;;;;;;12.00;99.90;;;;;;5109120;28;19907;-70
2023/10/30 00:12:47;;;;;;;;;;;12.00;99.90;;;;;;5116238;27;19908;-70
2023/10/30 00:15:12;;;;;;;;;;;12.00;99.90;;;;;;5111815;27;19941;-69
2023/10/30 00:17:38;;;;;;;;;;;11.90;99.90;;;;;;5123197;27;19951;-69
2023/10/30 00:20:04;;;;;;;;;;;11.90;99.90;;;;;;5116750;27;20003;-69
2023/10/30 00:22:29;;;;;;;;;;;11.90;99.90;;;;;;5120391;27;19911;-69
2023/10/30 00:24:55;;;;;;;;;;;12.00;99.90;;;;;;5126194;27;20372;-70
2023/10/30 00:27:20;;;;;;;;;;;11.90;99.90;;;;;;5127455;27;20323;-70
2023/10/30 00:29:46;;;;;;;;;;;11.90;99.90;;;;;;5109038;27;19915;-70
2023/10/30 00:32:11;;;;;;;;;;;11.90;99.90;;;;;;5096910;28;19999;-70
2023/10/30 00:34:39;;;;;;;;;;;11.90;99.90;;;;;;5106356;27;19993;-70
2023/10/30 00:37:04;;;;;;;;;;;11.90;99.90;;;;;;5113132;27;20246;-70
2023/10/30 00:39:32;;;;;;;;;;;11.90;99.90;;;;;;5099939;28;19911;-70
2023/10/30 00:41:59;;;;;;;;;;;11.90;99.90;;;;;;5120163;27;19914;-70
2023/10/30 00:44:25;;;;;;;;;;;11.90;99.90;;;;;;5101813;27;19912;-70
2023/10/30 00:46:52;;;;;;;;;;;11.90;99.90;;;;;;5101774;28;20062;-70
2023/10/30 00:49:18;;;;;;;;;;;11.90;99.90;;;;;;5099148;28;20465;-70
2023/10/30 00:51:44;;;;;;;;;;;11.90;99.90;;;;;;5100716;28;19958;-70
2023/10/30 00:54:09;;;;;;;;;;;11.90;99.90;;;;;;5097074;28;19919;-70
2023/10/30 00:56:35;;;;;;;;;;;11.90;99.90;;;;;;5102953;28;19931;-69
2023/10/30 00:59:01;;;;;;;;;;;11.90;99.90;;;;;;5097024;28;19966;-69
2023/10/30 01:01:26;;;;;;;;;;;11.90;99.90;;;;;;5106653;28;19961;-69
2023/10/30 01:03:52;;;;;;;;;;;11.90;99.90;;;;;;5092205;28;20107;-69
2023/10/30 01:06:17;;;;;;;;;;;11.90;99.90;;;;;;5087440;28;19916;-69
2023/10/30 01:08:43;;;;;;;;;;;11.90;99.90;;;;;;5095565;28;20010;-69
2023/10/30 01:11:09;;;;;;;;;;;11.90;99.90;;;;;;5119245;27;20336;-69
2023/10/30 01:13:36;;;;;;;;;;;11.90;99.90;;;;;;5110309;27;19912;-69
2023/10/30 01:16:01;;;;;;;;;;;11.90;99.90;;;;;;5111650;28;20613;-69
2023/10/30 01:18:27;;;;;;;;;;;11.90;99.90;;;;;;5111733;27;19919;-69
2023/10/30 01:20:53;;;;;;;;;;;11.90;99.90;;;;;;5113041;27;19908;-69
2023/10/30 01:23:18;;;;;;;;;;;11.90;99.90;;;;;;5116622;27;19919;-69
2023/10/30 01:25:46;;;;;;;;;;;11.90;99.90;;;;;;5097948;28;19912;-69
2023/10/30 01:28:12;;;;;;;;;;;11.90;99.90;;;;;;5099703;27;20388;-69
2023/10/30 01:30:37;;;;;;;;;;;11.90;99.90;;;;;;5103518;27;19912;-69
2023/10/30 01:33:03;;;;;;;;;;;11.90;99.90;;;;;;5107220;28;19919;-69
2023/10/30 01:35:29;;;;;;;;;;;11.90;99.90;;;;;;5099237;27;19950;-69
2023/10/30 01:37:54;;;;;;;;;;;11.90;99.90;;;;;;5107975;27;20041;-69
2023/10/30 01:40:20;;;;;;;;;;;11.90;99.90;;;;;;5120370;27;19918;-69
2023/10/30 01:42:45;;;;;;;;;;;11.90;99.90;;;;;;5104224;27;19908;-69
2023/10/30 01:45:11;;;;;;;;;;;11.90;99.90;;;;;;5106896;27;19915;-69
2023/10/30 01:47:37;;;;;;;;;;;11.90;99.90;;;;;;5118412;27;19943;-69
2023/10/30 01:50:04;;;;;;;;;;;11.90;99.90;;;;;;5110001;28;20434;-69
2023/10/30 01:52:29;;;;;;;;;;;11.90;99.90;;;;;;5127857;27;20011;-69
2023/10/30 01:54:56;;;;;;;;;;;11.80;99.90;;;;;;5104170;27;20007;-69
2023/10/30 01:57:22;;;;;;;;;;;11.90;99.90;;;;;;5100541;28;19951;-69
2023/10/30 01:59:50;;;;;;;;;;;11.80;99.90;;;;;;5096423;28;19924;-69
2023/10/30 02:02:23;;;;;;;;;;;11.80;99.90;;;;;;5139731;27;19912;-69
2023/10/30 02:04:48;;;;;;;;;;;11.80;99.90;;;;;;5105956;28;20012;-69
2023/10/30 02:07:14;;;;;;;;;;;11.90;99.90;;;;;;5094137;28;20520;-69
2023/10/30 02:09:40;;;;;;;;;;;11.90;99.90;;;;;;5103549;28;19911;-69
2023/10/30 02:12:06;;;;;;;;;;;11.90;99.90;;;;;;5102102;27;20296;-69
2023/10/30 02:14:32;;;;;;;;;;;11.90;99.90;;;;;;5102248;27;19919;-69
2023/10/30 02:16:57;;;;;;;;;;;11.80;99.90;;;;;;5105573;28;19912;-69
2023/10/30 02:19:26;;;;;;;;;;;11.80;99.90;;;;;;5099262;28;19971;-69
2023/10/30 02:21:52;;;;;;;;;;;11.80;99.90;;;;;;5112742;27;19925;-69
2023/10/30 02:24:17;;;;;;;;;;;11.90;99.90;;;;;;5098468;28;19919;-69
2023/10/30 02:26:43;;;;;;;;;;;11.80;99.90;;;;;;5104624;28;19912;-69
2023/10/30 02:29:09;;;;;;;;;;;11.80;99.90;;;;;;5103863;27;19924;-69
2023/10/30 02:31:35;;;;;;;;;;;11.80;99.90;;;;;;5117560;27;20529;-69
2023/10/30 02:34:01;;;;;;;;;;;11.80;99.90;;;;;;5109892;28;19911;-69
2023/10/30 02:36:26;;;;;;;;;;;11.80;99.90;;;;;;5109512;28;19912;-69
2023/10/30 02:38:52;;;;;;;;;;;11.80;99.90;;;;;;5095738;28;19961;-69
2023/10/30 02:41:19;;;;;;;;;;;11.80;99.90;;;;;;5102552;27;19949;-69
2023/10/30 02:43:44;;;;;;;;;;;11.80;99.90;;;;;;5125502;27;20380;-69
2023/10/30 02:46:10;;;;;;;;;;;11.80;99.90;;;;;;5104351;27;20018;-69
2023/10/30 02:48:35;;;;;;;;;;;11.80;99.90;;;;;;5101499;27;20462;-69
2023/10/30 02:51:01;;;;;;;;;;;11.80;99.90;;;;;;5111346;27;20555;-69
2023/10/30 02:53:26;;;;;;;;;;;11.80;99.90;;;;;;5109981;28;20333;-69
2023/10/30 02:55:52;;;;;;;;;;;11.80;99.90;;;;;;5117229;27;20002;-69
2023/10/30 02:58:18;;;;;;;;;;;11.80;99.90;;;;;;5113112;27;19908;-69
2023/10/30 03:00:43;;;;;;;;;;;11.80;99.90;;;;;;5121863;27;19916;-69
2023/10/30 03:03:09;;;;;;;;;;;11.80;99.90;;;;;;5111893;27;19912;-69
2023/10/30 03:05:35;;;;;;;;;;;11.80;99.90;;;;;;5098088;28;19946;-69
2023/10/30 03:08:01;;;;;;;;;;;11.80;99.90;;;;;;5116291;27;19939;-69
2023/10/30 03:10:27;;;;;;;;;;;11.80;99.90;;;;;;5123805;27;19912;-69
2023/10/30 03:12:53;;;;;;;;;;;11.80;99.90;;;;;;5109396;27;19994;-69
2023/10/30 03:15:18;;;;;;;;;;;11.80;99.90;;;;;;5119706;27;20003;-69
2023/10/30 03:17:44;;;;;;;;;;;11.80;99.90;;;;;;5109537;28;20020;-69
2023/10/30 03:20:10;;;;;;;;;;;11.80;99.90;;;;;;5110413;27;19949;-69
2023/10/30 03:22:35;;;;;;;;;;;11.80;99.90;;;;;;5120406;27;20015;-69
2023/10/30 03:25:01;;;;;;;;;;;11.80;99.90;;;;;;5113823;27;19908;-69
2023/10/30 03:27:27;;;;;;;;;;;11.80;99.90;;;;;;5107931;28;19919;-69
2023/10/30 03:29:52;;;;;;;;;;;11.80;99.90;;;;;;5100882;28;19920;-69
2023/10/30 03:32:18;;;;;;;;;;;11.70;99.90;;;;;;5108706;27;20026;-69
2023/10/30 03:34:43;;;;;;;;;;;11.80;99.90;;;;;;5121485;27;19907;-70
2023/10/30 03:37:09;;;;;;;;;;;11.70;99.90;;;;;;5105646;27;19912;-70
2023/10/30 03:39:35;;;;;;;;;;;11.70;99.90;;;;;;5109276;27;19918;-70
2023/10/30 03:42:00;;;;;;;;;;;11.80;99.90;;;;;;5109667;28;19908;-70
2023/10/30 03:44:26;;;;;;;;;;;11.80;99.90;;;;;;5123253;27;19912;-70
2023/10/30 03:46:52;;;;;;;;;;;11.70;99.90;;;;;;5109413;28;19918;-70
2023/10/30 03:49:18;;;;;;;;;;;11.70;99.90;;;;;;5110732;27;19957;-69
2023/10/30 03:51:43;;;;;;;;;;;11.80;99.90;;;;;;5111885;27;19915;-69
2023/10/30 03:54:09;;;;;;;;;;;11.70;99.90;;;;;;5112609;27;19918;-69
2023/10/30 03:56:35;;;;;;;;;;;11.70;99.90;;;;;;5111446;27;19912;-69
2023/10/30 03:59:01;;;;;;;;;;;11.80;99.90;;;;;;5105254;27;19953;-69
2023/10/30 04:01:26;;;;;;;;;;;11.70;99.90;;;;;;5100610;28;20438;-69
2023/10/30 04:03:53;;;;;;;;;;;11.70;99.90;;;;;;5108727;27;19915;-69
2023/10/30 04:06:18;;;;;;;;;;;11.70;99.90;;;;;;5106821;27;20323;-69
2023/10/30 04:08:44;;;;;;;;;;;11.70;99.90;;;;;;5104183;27;19911;-69
2023/10/30 04:11:13;;;;;;;;;;;11.70;99.90;;;;;;5091792;28;19934;-69
2023/10/30 04:13:39;;;;;;;;;;;11.70;99.90;;;;;;5107306;27;19912;-69
2023/10/30 04:16:04;;;;;;;;;;;11.70;99.90;;;;;;5103863;28;19961;-69
2023/10/30 04:18:31;;;;;;;;;;;11.70;99.90;;;;;;5108674;27;19916;-69
2023/10/30 04:20:56;;;;;;;;;;;11.70;99.90;;;;;;5101535;28;19908;-69
2023/10/30 04:23:22;;;;;;;;;;;11.70;99.90;;;;;;5113199;27;20006;-69
2023/10/30 04:25:47;;;;;;;;;;;11.70;99.90;;;;;;5120818;27;20003;-69
2023/10/30 04:28:13;;;;;;;;;;;11.70;99.90;;;;;;5101799;28;20236;-69
2023/10/30 04:30:38;;;;;;;;;;;11.70;99.90;;;;;;5101126;28;20368;-69
2023/10/30 04:33:04;;;;;;;;;;;11.70;99.90;;;;;;5100389;28;19918;-69
2023/10/30 04:35:29;;;;;;;;;;;11.70;99.90;;;;;;5116761;27;19965;-69
2023/10/30 04:37:55;;;;;;;;;;;11.70;99.90;;;;;;5099847;28;19911;-69
2023/10/30 04:40:20;;;;;;;;;;;11.70;99.90;;;;;;5104731;28;19918;-69
2023/10/30 04:42:46;;;;;;;;;;;11.70;99.90;;;;;;5104891;27;20002;-69
2023/10/30 04:45:11;;;;;;;;;;;11.70;99.90;;;;;;5110807;27;19912;-70
2023/10/30 04:47:37;;;;;;;;;;;11.70;99.90;;;;;;5104857;27;19912;-69
2023/10/30 04:50:03;;;;;;;;;;;11.70;99.90;;;;;;5091876;28;19912;-69
2023/10/30 04:52:29;;;;;;;;;;;11.70;99.90;;;;;;5108120;27;19957;-69
2023/10/30 04:54:54;;;;;;;;;;;11.70;99.90;;;;;;5101691;28;19916;-69
2023/10/30 04:57:20;;;;;;;;;;;11.60;99.90;;;;;;5089766;28;20003;-69
2023/10/30 04:59:45;;;;;;;;;;;11.60;99.90;;;;;;5099230;28;19923;-69
2023/10/30 05:02:11;;;;;;;;;;;11.60;99.90;;;;;;5100427;28;19972;-69
2023/10/30 05:04:39;;;;;;;;;;;11.60;99.90;;;;;;5114821;28;19960;-69
2023/10/30 05:07:05;;;;;;;;;;;11.60;99.90;;;;;;5110465;27;19916;-69
2023/10/30 05:09:31;;;;;;;;;;;11.60;99.90;;;;;;5099333;28;19912;-69
2023/10/30 05:11:58;;;;;;;;;;;11.60;99.90;;;;;;5101044;28;20411;-69
2023/10/30 05:14:24;;;;;;;;;;;11.60;99.90;;;;;;5105333;27;19976;-69
2023/10/30 05:16:49;;;;;;;;;;;11.60;99.90;;;;;;5114557;27;20546;-69
2023/10/30 05:19:14;;;;;;;;;;;11.60;99.90;;;;;;5114944;28;19939;-69
2023/10/30 05:21:40;;;;;;;;;;;11.60;99.90;;;;;;5107885;28;20343;-69
2023/10/30 05:24:06;;;;;;;;;;;11.60;99.90;;;;;;5107281;27;20014;-69
2023/10/30 05:26:31;;;;;;;;;;;11.60;99.90;;;;;;5089804;28;19939;-69
2023/10/30 05:28:57;;;;;;;;;;;11.60;99.90;;;;;;5099150;28;19919;-69
2023/10/30 05:31:22;;;;;;;;;;;11.60;99.90;;;;;;5104049;28;19915;-69
2023/10/30 05:33:48;;;;;;;;;;;11.60;99.90;;;;;;5093493;28;19919;-69
2023/10/30 05:36:13;;;;;;;;;;;11.60;99.90;;;;;;5105499;27;20332;-69
2023/10/30 05:38:39;;;;;;;;;;;11.60;99.90;;;;;;5101251;28;19911;-69
2023/10/30 05:41:04;;;;;;;;;;;11.60;99.90;;;;;;5116483;27;19992;-69
2023/10/30 05:43:30;;;;;;;;;;;11.60;99.90;;;;;;5125921;27;19911;-69
2023/10/30 05:45:56;;;;;;;;;;;11.60;99.90;;;;;;5112641;27;19912;-69
2023/10/30 05:48:21;;;;;;;;;;;11.60;99.90;;;;;;5115914;27;20288;-69
2023/10/30 05:50:47;;;;;;;;;;;11.60;99.90;;;;;;5112090;27;20588;-69
2023/10/30 05:53:12;;;;;;;;;;;11.60;99.90;;;;;;5110431;27;19972;-69
2023/10/30 05:55:38;;;;;;;;;;;11.60;99.90;;;;;;5124687;27;19907;-69
2023/10/30 05:58:03;;;;;;;;;;;11.50;99.90;;;;;;5115566;27;19912;-69
2023/10/30 06:00:32;;;;;;;;;;;11.60;99.90;;;;;;5102822;28;19920;-69
2023/10/30 06:02:57;;;;;;;;;;;11.60;99.90;;;;;;5111130;28;19923;-69
2023/10/30 06:05:23;;;;;;;;;;;11.60;99.90;;;;;;5121440;27;20513;-70
2023/10/30 06:07:48;;;;;;;;;;;11.50;99.90;;;;;;5116305;27;19922;-70
2023/10/30 06:10:16;;;;;;;;;;;11.50;99.90;;;;;;5122224;27;19912;-70
2023/10/30 06:12:42;;;;;;;;;;;11.50;99.90;;;;;;5116176;27;19964;-69
2023/10/30 06:15:10;;;;;;;;;;;11.60;99.90;;;;;;5113781;27;20150;-69
2023/10/30 06:17:35;;;;;;;;;;;11.50;99.90;;;;;;5118657;27;19950;-69
2023/10/30 06:20:01;;;;;;;;;;;11.60;99.90;;;;;;5118190;27;19935;-69
2023/10/30 06:22:28;;;;;;;;;;;11.50;99.90;;;;;;5113457;27;19951;-69
2023/10/30 06:24:54;;;;;;;;;;;11.50;99.90;;;;;;5122850;27;19914;-69
2023/10/30 06:27:19;;;;;;;;;;;11.50;99.90;;;;;;5112244;27;19922;-69
2023/10/30 06:29:45;;;;;;;;;;;11.50;99.90;;;;;;5109955;27;20002;-69
2023/10/30 06:32:10;;;;;;;;;;;11.50;99.90;;;;;;5104536;27;19918;-69
2023/10/30 06:34:38;;;;;;;;;;;11.50;99.90;;;;;;5126921;27;20014;-69
2023/10/30 06:37:04;;;;;;;;;;;11.50;99.90;;;;;;5104523;28;20361;-69
2023/10/30 06:39:29;;;;;;;;;;;11.50;99.90;;;;;;5101472;28;20003;-69
2023/10/30 06:41:56;;;;;;;;;;;11.50;99.90;;;;;;5119364;27;19908;-69
2023/10/30 06:44:22;;;;;;;;;;;11.50;99.90;;;;;;5113001;27;19912;-69
2023/10/30 06:46:50;;;;;;;;;;;11.50;99.90;;;;;;5110310;27;20479;-70
2023/10/30 06:49:16;;;;;;;;;;;11.50;99.90;;;;;;5115381;27;19934;-70
2023/10/30 06:51:41;;;;;;;;;;;11.50;99.90;;;;;;5109715;28;20356;-70
2023/10/30 06:54:10;;;;;;;;;;;11.50;99.90;;;;;;5118966;27;19918;-70
2023/10/30 06:56:36;;;;;;;;;;;11.50;99.90;;;;;;5100939;28;19912;-70
2023/10/30 06:59:02;;;;;;;;;;;11.50;99.90;;;;;;5092774;27;19926;-70
2023/10/30 07:01:29;;;;;;;;;;;11.50;99.90;;;;;;5117743;27;20372;-70
2023/10/30 07:03:55;;;;;;;;;;;11.50;99.90;;;;;;5109047;27;20310;-69
2023/10/30 07:06:21;;;;;;;;;;;11.50;99.90;;;;;;5127862;27;19984;-69
2023/10/30 07:08:47;;;;;;;;;;;11.50;99.90;;;;;;5118701;27;19998;-69
2023/10/30 07:11:12;;;;;;;;;;;11.50;99.90;;;;;;5110253;28;20022;-69
2023/10/30 07:13:38;;;;;;;;;;;11.50;99.90;;;;;;5122867;27;19918;-69
2023/10/30 07:16:04;;;;;;;;;;;11.50;99.90;;;;;;5122672;27;20431;-69
2023/10/30 07:18:29;;;;;;;;;;;11.50;99.90;;;;;;5098097;28;19939;-69
2023/10/30 07:20:55;;;;;;;;;;;11.50;99.90;;;;;;5113409;27;19951;-69
2023/10/30 07:23:20;;;;;;;;;;;11.50;99.90;;;;;;5101451;28;19912;-70
2023/10/30 07:25:46;;;;;;;;;;;11.50;99.90;;;;;;5123932;27;19962;-70
2023/10/30 07:28:16;;;;;;;;;;;11.50;99.90;;;;;;5112427;27;20329;-70
2023/10/30 07:30:41;;;;;;;;;;;11.50;99.90;;;;;;5102398;28;19931;-70
2023/10/30 07:33:07;;;;;;;;;;;11.40;99.90;;;;;;5116765;27;20260;-70
2023/10/30 07:35:32;;;;;;;;;;;11.50;99.90;;;;;;5119995;27;20261;-70
2023/10/30 07:37:58;;;;;;;;;;;11.50;99.90;;;;;;5107551;27;20386;-70
2023/10/30 07:40:26;;;;;;;;;;;11.40;99.90;;;;;;5117780;27;19918;-70
2023/10/30 07:42:52;;;;;;;;;;;11.50;99.90;;;;;;5115254;27;19963;-70
2023/10/30 07:45:17;;;;;;;;;;;11.50;99.90;;;;;;5118067;27;20370;-70
2023/10/30 07:47:43;;;;;;;;;;;11.40;99.90;;;;;;5108843;28;19915;-70
2023/10/30 07:50:09;;;;;;;;;;;11.50;99.90;;;;;;5117615;27;19908;-70
2023/10/30 07:52:35;;;;;;;;;;;11.50;99.90;;;;;;5125973;27;19958;-70
2023/10/30 07:55:01;;;;;;;;;;;11.50;99.90;;;;;;5116494;27;20017;-70
2023/10/30 07:57:27;;;;;;;;;;;11.50;99.90;;;;;;5108235;27;20284;-70
2023/10/30 07:59:52;;;;;;;;;;;11.50;99.90;;;;;;5106960;27;19968;-70
2023/10/30 08:02:18;;;;;;;;;;;11.50;99.90;;;;;;5127662;27;19911;-70
2023/10/30 08:04:43;;;;;;;;;;;11.50;99.90;;;;;;5109074;28;20448;-70
2023/10/30 08:07:09;;;;;;;;;;;11.50;99.90;;;;;;5112752;27;19919;-70
2023/10/30 08:09:35;;;;;;;;;;;11.60;99.90;;;;;;5108789;28;19951;-70
2023/10/30 08:12:02;;;;;;;;;;;11.60;99.90;;;;;;5108635;28;19911;-69
2023/10/30 08:14:28;;;;;;;;;;;11.60;99.90;;;;;;5121265;27;19915;-69
2023/10/30 08:16:54;;;;;;;;;;;11.60;99.90;;;;;;5115510;27;19918;-69
2023/10/30 08:19:19;;;;;;;;;;;11.60;99.90;;;;;;5121862;27;19912;-69
2023/10/30 08:21:45;;;;;;;;;;;11.60;99.90;;;;;;5098882;27;20012;-69
2023/10/30 08:24:11;;;;;;;;;;;11.60;99.90;;;;;;5116917;27;20660;-69
2023/10/30 08:26:36;;;;;;;;;;;11.70;99.90;;;;;;5116912;27;19916;-69
2023/10/30 08:29:02;;;;;;;;;;;11.70;99.90;;;;;;5100369;28;19912;-69
2023/10/30 08:31:27;;;;;;;;;;;11.70;99.90;;;;;;5115632;27;19930;-69
2023/10/30 08:33:54;;;;;;;;;;;11.70;99.90;;;;;;5116496;27;19908;-69
2023/10/30 08:36:20;;;;;;;;;;;11.80;99.90;;;;;;5109565;27;20221;-69
2023/10/30 08:38:48;;;;;;;;;;;11.80;99.90;;;;;;5115217;27;19994;-69
2023/10/30 08:41:19;;;;;;;;;;;11.90;99.90;;;;;;5108768;27;19950;-69
2023/10/30 08:43:44;;;;;;;;;;;11.90;99.90;;;;;;5106634;27;20344;-69
2023/10/30 08:46:15;;;;;;;;;;;12.00;99.90;;;;;;5128173;27;19979;-70
2023/10/30 08:48:40;;;;;;;;;;;12.00;99.90;;;;;;5110827;27;19911;-70
2023/10/30 08:51:07;;;;;;;;;;;12.00;99.90;;;;;;5120176;27;20599;-70
2023/10/30 08:53:34;;;;;;;;;;;12.10;99.90;;;;;;5107559;28;20432;-69
2023/10/30 08:56:00;;;;;;;;;;;12.10;99.90;;;;;;5109358;27;19908;-69
2023/10/30 08:58:25;;;;;;;;;;;12.10;99.90;;;;;;5104259;28;19914;-69
2023/10/30 09:00:51;;;;;;;;;;;12.20;99.90;;;;;;5097458;27;20302;-69
2023/10/30 09:03:16;;;;;;;;;;;12.20;99.90;;;;;;5117657;27;19915;-69
2023/10/30 09:05:42;;;;;;;;;;;12.30;99.90;;;;;;5096714;28;20305;-69
2023/10/30 09:08:07;;;;;;;;;;;12.30;99.90;;;;;;5117913;27;20384;-69
2023/10/30 09:10:34;;;;;;;;;;;12.30;99.90;;;;;;5116270;27;19976;-69
2023/10/30 09:12:59;;;;;;;;;;;12.30;99.90;;;;;;5112834;28;19959;-70
2023/10/30 09:15:25;;;;;;;;;;;12.40;99.90;;;;;;5117135;27;19911;-69
2023/10/30 09:17:52;;;;;;;;;;;12.40;99.90;;;;;;5106212;28;19918;-69
2023/10/30 09:20:17;;;;;;;;;;;12.50;99.90;;;;;;5097890;28;19912;-70
2023/10/30 09:22:43;;;;;;;;;;;12.50;99.90;;;;;;5099587;28;19907;-70
2023/10/30 09:25:08;;;;;;;;;;;12.50;99.90;;;;;;5096368;28;20422;-69
2023/10/30 09:27:34;;;;;;;;;;;12.60;99.90;;;;;;5123808;27;19912;-69
2023/10/30 09:30:00;;;;;;;;;;;12.60;99.90;;;;;;5116131;27;19958;-69
2023/10/30 09:32:26;;;;;;;;;;;12.60;99.90;;;;;;5113120;27;20370;-69
2023/10/30 09:34:51;;;;;;;;;;;12.60;99.90;;;;;;5119831;27;20260;-69
2023/10/30 09:37:17;;;;;;;;;;;12.70;99.90;;;;;;5113418;27;19908;-69
2023/10/30 09:39:42;;;;;;;;;;;12.70;99.90;;;;;;5117331;27;20053;-69
2023/10/30 09:42:08;;;;;;;;;;;12.80;99.90;;;;;;5118641;27;20010;-69
2023/10/30 09:44:34;;;;;;;;;;;12.80;99.90;;;;;;5122461;27;19918;-69
2023/10/30 09:47:00;;;;;;;;;;;12.80;99.90;;;;;;5114721;27;20381;-69
2023/10/30 09:49:28;;;;;;;;;;;12.90;99.90;;;;;;5111395;27;19911;-69
2023/10/30 09:51:55;;;;;;;;;;;12.90;99.90;;;;;;5117416;27;19908;-69
2023/10/30 09:54:21;;;;;;;;;;;13.00;99.90;;;;;;5119200;27;19911;-69
2023/10/30 09:56:48;;;;;;;;;;;12.90;99.90;;;;;;5125278;27;19908;-69
2023/10/30 09:59:16;;;;;;;;;;;13.00;99.90;;;;;;5112865;27;19932;-69
2023/10/30 10:01:41;;;;;;;;;;;13.00;99.90;;;;;;5105321;27;20085;-69
2023/10/30 10:04:07;;;;;;;;;;;13.00;99.90;;;;;;5107283;28;20656;-69
2023/10/30 10:06:32;;;;;;;;;;;13.10;99.90;;;;;;5116192;27;20394;-69
2023/10/30 10:08:58;;;;;;;;;;;13.10;99.90;;;;;;5114235;27;19938;-69
2023/10/30 10:11:30;;;;;;;;;;;13.10;99.90;;;;;;5119000;27;19912;-69
2023/10/30 10:13:56;;;;;;;;;;;13.20;99.90;;;;;;5111497;27;19912;-69
2023/10/30 10:16:26;;;;;;;;;;;13.20;99.90;;;;;;5133270;27;19931;-69
2023/10/30 10:18:52;;;;;;;;;;;13.20;99.90;;;;;;5117653;27;19911;-69
2023/10/30 10:21:18;;;;;;;;;;;13.30;99.90;;;;;;5111527;27;20470;-69
2023/10/30 10:23:44;;;;;;;;;;;13.30;99.90;;;;;;5118389;27;20777;-69
2023/10/30 10:26:14;;;;;;;;;;;13.40;99.90;;;;;;5110455;28;20338;-69
2023/10/30 10:28:44;;;;;;;;;;;13.40;99.90;;;;;;5115060;27;19943;-69
2023/10/30 10:31:09;;;;;;;;;;;13.40;99.90;;;;;;5097483;28;20233;-69
2023/10/30 10:33:36;;;;;;;;;;;13.50;99.90;;;;;;5122008;27;19911;-69
2023/10/30 10:36:04;;;;;;;;;;;13.50;99.90;;;;;;5123853;27;20338;-69
2023/10/30 10:38:33;;;;;;;;;;;13.60;99.90;;;;;;5113567;27;19907;-69
2023/10/30 10:40:59;;;;;;;;;;;13.60;99.90;;;;;;5124555;27;19954;-69
2023/10/30 10:43:28;;;;;;;;;;;13.60;99.90;;;;;;5126879;27;20336;-69
2023/10/30 10:45:55;;;;;;;;;;;13.70;99.90;;;;;;5115934;27;19918;-69
2023/10/30 10:48:22;;;;;;;;;;;13.70;99.90;;;;;;5111490;27;19912;-69
2023/10/30 10:50:48;;;;;;;;;;;13.70;99.90;;;;;;5101848;28;19968;-69
2023/10/30 10:53:13;;;;;;;;;;;13.80;99.90;;;;;;5118096;27;19916;-69
2023/10/30 10:55:46;;;;;;;;;;;13.80;99.90;;;;;;5117166;27;19911;-69
2023/10/30 10:58:14;;;;;;;;;;;13.80;99.90;;;;;;5116305;27;19911;-69
2023/10/30 11:00:42;;;;;;;;;;;13.80;99.90;;;;;;5100641;27;19915;-69
2023/10/30 11:03:08;;;;;;;;;;;13.90;99.90;;;;;;5126022;27;20022;-69
2023/10/30 11:05:34;;;;;;;;;;;13.90;99.90;;;;;;5110003;27;19907;-69
2023/10/30 11:08:06;;;;;;;;;;;13.90;99.90;;;;;;5102218;28;19912;-69
2023/10/30 11:10:33;;;;;;;;;;;13.90;99.90;;;;;;5119373;27;20887;-69
2023/10/30 11:12:58;;;;;;;;;;;13.90;99.90;;;;;;5120044;27;19980;-69
2023/10/30 11:15:51;;;;;;;;;;;13.90;99.90;;;;;;5121514;27;20314;-69
2023/10/30 11:18:21;;;;;;;;;;;13.90;99.90;;;;;;5125648;27;20007;-69
2023/10/30 11:20:52;;;;;;;;;;;13.90;99.90;;;;;;5130038;27;19915;-69
2023/10/30 11:23:37;;;;;;;;;;;14.00;99.90;;;;;;5120192;27;19916;-69
2023/10/30 11:26:02;;;;;;;;;;;13.90;99.90;;;;;;5109279;28;19942;-69
2023/10/30 11:28:28;;;;;;;;;;;14.00;99.90;;;;;;5115194;27;20421;-69
2023/10/30 11:30:55;;;;;;;;;;;14.00;99.90;;;;;;5094419;28;19969;-69
2023/10/30 11:33:21;;;;;;;;;;;14.00;99.90;;;;;;5116366;27;19943;-69
2023/10/30 11:36:06;;;;;;;;;;;14.10;99.90;;;;;;5114896;27;19911;-69
2023/10/30 11:38:46;;;;;;;;;;;14.10;99.90;;;;;;5106722;27;19916;-69
2023/10/30 11:41:14;;;;;;;;;;;14.20;99.90;;;;;;5105697;28;20010;-69
2023/10/30 11:43:41;;;;;;;;;;;14.20;99.90;;;;;;5106840;27;20360;-70
2023/10/30 11:46:06;;;;;;;;;;;14.20;99.90;;;;;;5100751;28;20602;-70
2023/10/30 11:48:32;;;;;;;;;;;14.20;99.90;;;;;;5107423;28;19926;-70
2023/10/30 11:50:58;;;;;;;;;;;14.20;99.90;;;;;;5111209;27;19913;-70
2023/10/30 11:53:24;;;;;;;;;;;14.20;99.90;;;;;;5103511;28;19931;-70
2023/10/30 11:55:51;;;;;;;;;;;14.20;99.90;;;;;;5107637;27;19907;-70
2023/10/30 11:58:18;;;;;;;;;;;14.30;99.90;;;;;;5119190;27;19918;-70
2023/10/30 12:00:47;;;;;;;;;;;14.30;99.90;;;;;;5108587;28;20264;-70
2023/10/30 12:03:13;;;;;;;;;;;14.30;99.90;;;;;;5116665;27;19918;-70
2023/10/30 12:05:39;;;;;;;;;;;14.30;99.90;;;;;;5100536;28;20064;-70
2023/10/30 12:08:04;;;;;;;;;;;14.30;99.90;;;;;;5107693;27;20416;-70
2023/10/30 12:10:33;;;;;;;;;;;14.30;99.90;;;;;;5099919;28;20606;-70
2023/10/30 12:12:59;;;;;;;;;;;14.30;99.90;;;;;;5123357;27;19918;-70
2023/10/30 12:15:28;;;;;;;;;;;14.30;99.90;;;;;;5108874;27;20120;-70
2023/10/30 12:17:53;;;;;;;;;;;14.30;99.90;;;;;;5108499;28;19908;-70
2023/10/30 12:20:22;;;;;;;;;;;14.30;99.90;;;;;;5108908;28;19912;-70
2023/10/30 12:22:47;;;;;;;;;;;14.30;99.90;;;;;;5103973;28;20346;-70
2023/10/30 12:25:14;;;;;;;;;;;14.30;99.90;;;;;;5120472;27;19956;-70
2023/10/30 12:27:40;;;;;;;;;;;14.30;99.90;;;;;;5103207;28;20230;-70
2023/10/30 12:30:09;;;;;;;;;;;14.30;99.90;;;;;;5096719;28;19912;-70
2023/10/30 12:32:35;;;;;;;;;;;14.40;99.90;;;;;;5103459;27;20566;-70
2023/10/30 12:35:07;;;;;;;;;;;14.40;99.90;;;;;;5115356;27;19911;-70
2023/10/30 12:37:32;;;;;;;;;;;14.40;99.90;;;;;;5108951;27;19964;-70
2023/10/30 12:40:03;;;;;;;;;;;14.30;99.90;;;;;;5114943;27;19950;-70
2023/10/30 12:42:29;;;;;;;;;;;14.30;99.90;;;;;;5108579;27;19912;-70
2023/10/30 12:44:55;;;;;;;;;;;14.30;99.90;;;;;;5113921;27;19915;-70
2023/10/30 12:47:20;;;;;;;;;;;14.30;99.90;;;;;;5100577;27;20517;-69
2023/10/30 12:49:46;;;;;;;;;;;14.30;99.90;;;;;;5115524;27;19911;-70
2023/10/30 12:52:11;;;;;;;;;;;14.30;99.90;;;;;;5125064;27;19923;-70
2023/10/30 12:54:37;;;;;;;;;;;14.30;99.90;;;;;;5108334;27;19907;-70
2023/10/30 12:57:03;;;;;;;;;;;14.30;99.90;;;;;;5108666;28;19907;-70
2023/10/30 12:59:29;;;;;;;;;;;14.30;99.90;;;;;;5099618;28;19924;-70
2023/10/30 13:01:54;;;;;;;;;;;14.30;99.90;;;;;;5103189;28;20239;-70
2023/10/30 13:04:20;;;;;;;;;;;14.30;99.90;;;;;;5087376;28;19916;-70
2023/10/30 13:06:46;;;;;;;;;;;14.30;99.90;;;;;;5129822;27;19920;-70
2023/10/30 13:09:11;;;;;;;;;;;14.30;99.90;;;;;;5104566;28;19915;-70
2023/10/30 13:11:37;;;;;;;;;;;14.30;99.90;;;;;;5128867;27;19938;-70
2023/10/30 13:14:03;;;;;;;;;;;14.30;99.90;;;;;;5122174;27;19916;-70
2023/10/30 13:16:28;;;;;;;;;;;14.30;99.90;;;;;;5099636;28;20288;-70
2023/10/30 13:18:54;;;;;;;;;;;14.30;99.90;;;;;;5108392;28;19957;-70
2023/10/30 13:21:19;;;;;;;;;;;14.30;99.90;;;;;;5116022;27;20002;-70
2023/10/30 13:23:45;;;;;;;;;;;14.20;99.90;;;;;;5103873;28;19918;-70
2023/10/30 13:26:10;;;;;;;;;;;14.20;99.90;;;;;;5106167;28;19918;-70
2023/10/30 13:28:36;;;;;;;;;;;14.20;99.90;;;;;;5098942;28;19923;-70
2023/10/30 13:31:01;;;;;;;;;;;14.30;99.90;;;;;;5115951;27;19931;-70
2023/10/30 13:33:27;;;;;;;;;;;14.30;99.90;;;;;;5115786;28;19994;-70
2023/10/30 13:35:52;;;;;;;;;;;14.30;99.90;;;;;;5107800;28;19912;-70
2023/10/30 13:38:18;;;;;;;;;;;14.30;99.90;;;;;;5098802;28;19908;-70
2023/10/30 13:40:43;;;;;;;;;;;14.30;99.90;;;;;;5103284;28;19919;-70
2023/10/30 13:43:09;;;;;;;;;;;14.30;99.90;;;;;;5109395;27;19998;-70
2023/10/30 13:45:34;;;;;;;;;;;14.30;99.90;;;;;;5095536;28;19924;-70
2023/10/30 13:48:00;;;;;;;;;;;14.30;99.90;;;;;;5103616;28;19941;-70
2023/10/30 13:50:25;;;;;;;;;;;14.30;99.90;;;;;;5116059;27;20396;-70
2023/10/30 13:52:51;;;;;;;;;;;14.30;99.90;;;;;;5114132;27;19916;-70
2023/10/30 13:55:16;;;;;;;;;;;14.30;99.90;;;;;;5125115;27;19918;-70
2023/10/30 13:57:42;;;;;;;;;;;14.30;99.90;;;;;;5118288;27;19994;-70
2023/10/30 14:00:09;;;;;;;;;;;14.30;99.90;;;;;;5108050;28;19972;-70
2023/10/30 14:02:38;;;;;;;;;;;14.30;99.90;;;;;;5096505;28;19917;-70
2023/10/30 14:05:05;;;;;;;;;;;14.30;99.90;;;;;;5094638;28;19924;-70
2023/10/30 14:07:30;;;;;;;;;;;14.30;99.90;;;;;;5107392;28;19912;-70
2023/10/30 14:09:56;;;;;;;;;;;14.30;99.90;;;;;;5099186;28;19943;-70